createdAt,value
2022-10-23T00:00:53.566Z,3.00
2022-10-23T00:01:53.588Z,3.30
2022-10-23T00:02:53.602Z,2.80
2022-10-23T00:03:53.551Z,3.20
2022-10-23T00:04:53.529Z,3.40
2022-10-23T00:05:53.521Z,3.10
2022-10-23T00:06:53.509Z,3.50
2022-10-23T00:07:53.508Z,3.00
2022-10-23T00:08:53.469Z,3.30
2022-10-23T00:09:53.479Z,3.40
2022-10-23T00:10:53.450Z,3.20
2022-10-23T00:11:53.440Z,3.30
2022-10-23T00:12:53.450Z,3.40
2022-10-23T00:13:53.412Z,3.30
2022-10-23T00:14:53.420Z,3.30
2022-10-23T00:15:53.422Z,3.00
2022-10-23T00:16:53.396Z,3.00
2022-10-23T00:17:53.374Z,2.70
2022-10-23T00:18:53.416Z,2.90
2022-10-23T00:19:53.352Z,3.10
2022-10-23T00:20:53.357Z,3.00
2022-10-23T00:21:53.325Z,3.10
2022-10-23T00:22:53.343Z,2.70
2022-10-23T00:23:53.310Z,2.90
2022-10-23T00:24:53.324Z,3.10
2022-10-23T00:25:53.300Z,2.80
2022-10-23T00:26:53.274Z,3.00
2022-10-23T00:27:53.265Z,3.10
2022-10-23T00:28:53.285Z,3.00
2022-10-23T00:29:53.235Z,3.20
2022-10-23T00:30:54.203Z,2.90
2022-10-23T00:31:53.218Z,3.20
2022-10-23T00:32:53.232Z,2.60
2022-10-23T00:33:53.224Z,2.60
2022-10-23T00:34:53.186Z,2.50
2022-10-23T00:35:53.172Z,2.90
2022-10-23T00:36:53.206Z,2.70
2022-10-23T00:37:53.145Z,2.60
2022-10-23T00:38:53.140Z,2.70
2022-10-23T00:39:53.127Z,2.70
2022-10-23T00:40:53.114Z,2.80
2022-10-23T00:41:53.140Z,2.60
2022-10-23T00:42:53.115Z,2.90
2022-10-23T00:43:53.079Z,2.90
2022-10-23T00:44:53.072Z,2.80
2022-10-23T00:45:53.074Z,2.90
2022-10-23T00:46:53.060Z,2.80
2022-10-23T00:47:53.060Z,3.30
2022-10-23T00:48:53.063Z,2.90
2022-10-23T00:49:53.020Z,2.70
2022-10-23T00:50:53.021Z,2.70
2022-10-23T00:51:53.014Z,2.70
2022-10-23T00:52:52.991Z,2.40
2022-10-23T00:54:01.385Z,2.60
2022-10-23T00:54:54.003Z,2.60
2022-10-23T00:55:52.946Z,2.90
2022-10-23T00:56:52.946Z,2.90
2022-10-23T00:57:52.928Z,3.00
2022-10-23T00:58:52.921Z,3.20
2022-10-23T00:59:52.909Z,3.00
2022-10-23T01:00:52.926Z,2.90
2022-10-23T01:01:52.966Z,2.70
2022-10-23T01:02:52.899Z,2.70
2022-10-23T01:03:52.858Z,2.60
2022-10-23T01:04:52.879Z,3.10
2022-10-23T01:05:52.841Z,2.90
2022-10-23T01:06:52.846Z,2.80
2022-10-23T01:07:52.812Z,2.60
2022-10-23T01:08:52.805Z,2.70
2022-10-23T01:09:52.823Z,2.80
2022-10-23T01:10:52.803Z,3.00
2022-10-23T01:11:52.786Z,2.60
2022-10-23T01:12:52.785Z,3.10
2022-10-23T01:13:52.819Z,2.50
2022-10-23T01:14:52.756Z,2.50
2022-10-23T01:15:53.738Z,2.70
2022-10-23T01:16:52.719Z,2.80
2022-10-23T01:17:52.706Z,2.70
2022-10-23T01:18:52.707Z,2.80
2022-10-23T01:19:52.710Z,2.80
2022-10-23T01:20:52.678Z,3.00
2022-10-23T01:21:52.674Z,2.80
2022-10-23T01:22:52.649Z,2.60
2022-10-23T01:23:52.640Z,2.80
2022-10-23T01:24:52.649Z,3.00
2022-10-23T01:25:52.650Z,2.50
2022-10-23T01:26:52.621Z,2.60
2022-10-23T01:27:52.605Z,2.50
2022-10-23T01:28:52.580Z,3.20
2022-10-23T01:29:52.571Z,3.00
2022-10-23T01:30:52.571Z,2.60
2022-10-23T01:31:52.602Z,2.30
2022-10-23T01:32:52.577Z,2.40
2022-10-23T01:33:52.522Z,2.80
2022-10-23T01:34:52.524Z,2.60
2022-10-23T01:35:52.509Z,2.80
2022-10-23T01:36:52.533Z,2.80
2022-10-23T01:37:53.444Z,2.70
2022-10-23T01:38:52.583Z,2.90
2022-10-23T01:39:52.476Z,2.40
2022-10-23T01:40:52.478Z,2.60
2022-10-23T01:41:52.447Z,2.90
2022-10-23T01:42:52.464Z,2.50
2022-10-23T01:43:52.419Z,2.60
2022-10-23T01:44:52.418Z,2.30
2022-10-23T01:45:52.413Z,2.20
2022-10-23T01:46:52.385Z,2.60
2022-10-23T01:47:52.374Z,2.60
2022-10-23T01:48:52.387Z,2.40
2022-10-23T01:49:52.348Z,2.70
2022-10-23T01:50:52.348Z,2.60
2022-10-23T01:51:53.286Z,2.70
2022-10-23T01:52:52.346Z,2.70
2022-10-23T01:53:52.308Z,2.70
2022-10-23T01:54:52.289Z,2.50
2022-10-23T01:55:52.299Z,2.80
2022-10-23T01:56:52.274Z,2.90
2022-10-23T01:57:52.249Z,2.10
2022-10-23T01:58:52.253Z,2.40
2022-10-23T01:59:52.259Z,2.30
2022-10-23T02:00:52.229Z,2.40
2022-10-23T02:01:52.414Z,2.40
2022-10-23T02:02:52.211Z,2.70
2022-10-23T02:03:52.233Z,2.40
2022-10-23T02:04:52.216Z,2.40
2022-10-23T02:05:52.181Z,2.60
2022-10-23T02:06:52.161Z,2.20
2022-10-23T02:07:52.161Z,2.50
2022-10-23T02:08:52.131Z,2.00
2022-10-23T02:09:52.152Z,2.80
2022-10-23T02:10:52.114Z,2.40
2022-10-23T02:11:52.125Z,2.30
2022-10-23T02:12:52.106Z,2.30
2022-10-23T02:13:52.123Z,2.40
2022-10-23T02:14:52.069Z,2.70
2022-10-23T02:15:52.067Z,2.20
2022-10-23T02:16:52.421Z,2.50
2022-10-23T02:17:52.041Z,2.70
2022-10-23T02:18:52.023Z,2.80
2022-10-23T02:19:52.046Z,2.60
2022-10-23T02:20:52.025Z,2.60
2022-10-23T02:21:52.030Z,2.40
2022-10-23T02:22:52.002Z,2.60
2022-10-23T02:23:53.806Z,2.30
2022-10-23T02:24:51.957Z,2.10
2022-10-23T02:25:51.945Z,2.50
2022-10-23T02:26:51.937Z,2.60
2022-10-23T02:27:51.940Z,2.60
2022-10-23T02:28:52.894Z,2.50
2022-10-23T02:29:51.936Z,2.20
2022-10-23T02:30:51.894Z,2.40
2022-10-23T02:31:51.877Z,2.60
2022-10-23T02:32:51.863Z,2.30
2022-10-23T02:33:51.855Z,2.40
2022-10-23T02:34:51.839Z,2.60
2022-10-23T02:35:51.859Z,2.60
2022-10-23T02:36:51.829Z,2.20
2022-10-23T02:37:51.829Z,2.40
2022-10-23T02:38:51.816Z,2.20
2022-10-23T02:39:51.791Z,2.40
2022-10-23T02:40:51.801Z,2.10
2022-10-23T02:41:51.760Z,2.30
2022-10-23T02:42:51.754Z,2.50
2022-10-23T02:43:51.770Z,2.60
2022-10-23T02:44:51.721Z,2.50
2022-10-23T02:45:51.740Z,2.70
2022-10-23T02:46:51.719Z,2.40
2022-10-23T02:47:51.706Z,2.20
2022-10-23T02:48:51.723Z,2.50
2022-10-23T02:49:51.673Z,2.30
2022-10-23T02:50:51.673Z,2.60
2022-10-23T02:51:51.654Z,2.20
2022-10-23T02:52:51.644Z,2.00
2022-10-23T02:53:51.647Z,2.10
2022-10-23T02:54:51.659Z,2.50
2022-10-23T02:55:51.615Z,2.00
2022-10-23T02:56:51.589Z,2.10
2022-10-23T02:57:51.605Z,2.50
2022-10-23T02:58:51.565Z,2.70
2022-10-23T02:59:51.570Z,2.40
2022-10-23T03:00:51.576Z,2.30
2022-10-23T03:01:51.646Z,2.40
2022-10-23T03:02:51.534Z,2.10
2022-10-23T03:03:51.557Z,2.50
2022-10-23T03:04:51.508Z,2.30
2022-10-23T03:05:51.536Z,2.40
2022-10-23T03:06:51.491Z,2.10
2022-10-23T03:07:51.503Z,2.50
2022-10-23T03:08:51.469Z,2.00
2022-10-23T03:09:51.456Z,2.40
2022-10-23T03:10:51.455Z,2.50
2022-10-23T03:11:51.450Z,2.60
2022-10-23T03:12:51.479Z,2.40
2022-10-23T03:13:51.412Z,2.20
2022-10-23T03:14:51.417Z,2.40
2022-10-23T03:15:51.402Z,2.50
2022-10-23T03:16:51.372Z,2.30
2022-10-23T03:17:51.360Z,2.40
2022-10-23T03:18:52.301Z,2.20
2022-10-23T03:19:51.361Z,2.30
2022-10-23T03:20:51.322Z,2.20
2022-10-23T03:21:51.314Z,2.60
2022-10-23T03:22:51.306Z,2.80
2022-10-23T03:23:51.312Z,2.50
2022-10-23T03:24:51.320Z,2.90
2022-10-23T03:25:51.287Z,2.40
2022-10-23T03:26:51.259Z,2.50
2022-10-23T03:27:51.258Z,2.10
2022-10-23T03:28:51.240Z,2.60
2022-10-23T03:29:51.230Z,2.20
2022-10-23T03:30:51.275Z,2.70
2022-10-23T03:31:51.204Z,2.60
2022-10-23T03:32:51.193Z,2.40
2022-10-23T03:33:51.189Z,2.30
2022-10-23T03:34:51.176Z,2.60
2022-10-23T03:35:51.157Z,2.60
2022-10-23T03:36:51.185Z,2.40
2022-10-23T03:37:51.136Z,2.30
2022-10-23T03:38:51.120Z,2.20
2022-10-23T03:39:51.129Z,2.50
2022-10-23T03:40:51.100Z,2.60
2022-10-23T03:41:51.088Z,2.40
2022-10-23T03:42:51.101Z,2.20
2022-10-23T03:43:51.126Z,2.70
2022-10-23T03:44:51.066Z,2.50
2022-10-23T03:45:51.060Z,2.20
2022-10-23T03:46:51.032Z,2.70
2022-10-23T03:47:51.038Z,2.50
2022-10-23T03:48:51.009Z,2.50
2022-10-23T03:49:51.011Z,2.30
2022-10-23T03:50:50.990Z,2.30
2022-10-23T03:51:51.009Z,2.50
2022-10-23T03:52:50.968Z,2.40
2022-10-23T03:53:50.969Z,2.40
2022-10-23T03:54:50.950Z,2.40
2022-10-23T03:55:50.950Z,2.30
2022-10-23T03:56:53.676Z,2.40
2022-10-23T03:57:51.919Z,2.50
2022-10-23T03:58:50.910Z,2.30
2022-10-23T03:59:50.892Z,2.30
2022-10-23T04:00:50.878Z,2.70
2022-10-23T04:01:50.952Z,2.40
2022-10-23T04:02:50.880Z,2.50
2022-10-23T04:03:50.862Z,2.90
2022-10-23T04:04:50.845Z,2.60
2022-10-23T04:05:52.312Z,2.40
2022-10-23T04:06:50.837Z,2.60
2022-10-23T04:07:50.875Z,2.70
2022-10-23T04:08:50.796Z,2.40
2022-10-23T04:09:50.784Z,2.50
2022-10-23T04:10:50.764Z,2.50
2022-10-23T04:11:50.775Z,2.80
2022-10-23T04:12:50.746Z,2.20
2022-10-23T04:13:50.744Z,2.50
2022-10-23T04:14:50.716Z,2.20
2022-10-23T04:15:50.736Z,2.80
2022-10-23T04:16:50.718Z,2.60
2022-10-23T04:17:50.692Z,2.40
2022-10-23T04:18:50.681Z,2.30
2022-10-23T04:19:50.686Z,2.50
2022-10-23T04:20:50.660Z,2.60
2022-10-23T04:21:50.686Z,2.40
2022-10-23T04:22:50.671Z,2.80
2022-10-23T04:23:50.649Z,2.40
2022-10-23T04:24:50.610Z,2.60
2022-10-23T04:25:50.601Z,2.40
2022-10-23T04:26:50.596Z,2.30
2022-10-23T04:27:50.621Z,2.60
2022-10-23T04:28:52.020Z,2.50
2022-10-23T04:29:52.236Z,2.00
2022-10-23T04:30:51.505Z,2.20
2022-10-23T04:31:50.539Z,2.40
2022-10-23T04:32:50.563Z,2.30
2022-10-23T04:33:50.521Z,2.80
2022-10-23T04:34:50.514Z,2.50
2022-10-23T04:35:50.491Z,2.40
2022-10-23T04:36:50.482Z,2.30
2022-10-23T04:37:50.472Z,2.10
2022-10-23T04:38:50.512Z,2.50
2022-10-23T04:39:50.449Z,2.80
2022-10-23T04:40:50.450Z,2.10
2022-10-23T04:41:50.424Z,2.10
2022-10-23T04:42:50.416Z,2.30
2022-10-23T04:43:50.404Z,2.50
2022-10-23T04:44:50.447Z,2.50
2022-10-23T04:45:50.387Z,2.40
2022-10-23T04:46:50.381Z,2.40
2022-10-23T04:47:50.379Z,2.70
2022-10-23T04:48:50.834Z,2.10
2022-10-23T04:49:50.345Z,2.20
2022-10-23T04:50:51.299Z,2.20
2022-10-23T04:51:50.357Z,2.20
2022-10-23T04:52:50.311Z,2.40
2022-10-23T04:53:50.288Z,2.40
2022-10-23T04:54:50.285Z,2.60
2022-10-23T04:55:50.268Z,2.30
2022-10-23T04:56:50.279Z,2.50
2022-10-23T04:57:50.249Z,2.10
2022-10-23T04:58:50.237Z,2.30
2022-10-23T04:59:50.273Z,2.10
2022-10-23T05:00:50.286Z,2.50
2022-10-23T05:01:50.226Z,2.40
2022-10-23T05:02:50.214Z,2.70
2022-10-23T05:03:50.202Z,2.20
2022-10-23T05:04:50.186Z,2.50
2022-10-23T05:05:50.171Z,2.60
2022-10-23T05:06:50.207Z,2.40
2022-10-23T05:07:51.132Z,2.30
2022-10-23T05:08:50.128Z,2.40
2022-10-23T05:09:50.120Z,2.30
2022-10-23T05:10:50.113Z,2.20
2022-10-23T05:11:50.117Z,2.10
2022-10-23T05:12:51.034Z,2.30
2022-10-23T05:13:50.121Z,2.10
2022-10-23T05:14:50.062Z,2.20
2022-10-23T05:15:50.055Z,2.10
2022-10-23T05:16:50.043Z,2.40
2022-10-23T05:17:50.042Z,2.40
2022-10-23T05:18:50.018Z,1.90
2022-10-23T05:19:50.034Z,2.40
2022-10-23T05:20:50.103Z,2.10
2022-10-23T05:21:49.994Z,2.10
2022-10-23T05:22:49.983Z,2.20
2022-10-23T05:23:50.043Z,2.00
2022-10-23T05:24:50.764Z,2.30
2022-10-23T05:25:49.976Z,2.10
2022-10-23T05:26:49.937Z,2.30
2022-10-23T05:27:49.946Z,2.20
2022-10-23T05:28:49.910Z,2.30
2022-10-23T05:29:49.938Z,2.10
2022-10-23T05:30:49.888Z,1.90
2022-10-23T05:31:49.875Z,2.20
2022-10-23T05:32:49.868Z,2.20
2022-10-23T05:33:49.878Z,2.20
2022-10-23T05:34:49.928Z,1.90
2022-10-23T05:35:49.928Z,2.20
2022-10-23T05:36:49.847Z,2.30
2022-10-23T05:37:49.838Z,2.00
2022-10-23T05:38:49.842Z,2.20
2022-10-23T05:39:49.799Z,2.10
2022-10-23T05:40:49.770Z,1.80
2022-10-23T05:41:49.862Z,2.00
2022-10-23T05:42:50.730Z,1.80
2022-10-23T05:43:49.830Z,1.70
2022-10-23T05:44:49.761Z,1.80
2022-10-23T05:45:49.731Z,1.80
2022-10-23T05:46:49.780Z,2.30
2022-10-23T05:47:49.708Z,2.00
2022-10-23T05:48:49.759Z,2.10
2022-10-23T05:49:49.693Z,2.00
2022-10-23T05:50:49.844Z,1.90
2022-10-23T05:51:49.703Z,2.10
2022-10-23T05:52:49.777Z,1.90
2022-10-23T05:53:49.661Z,2.00
2022-10-23T05:54:49.695Z,1.90
2022-10-23T05:55:49.675Z,1.90
2022-10-23T05:56:49.650Z,2.10
2022-10-23T05:57:49.617Z,2.00
2022-10-23T05:58:49.588Z,2.10
2022-10-23T05:59:51.039Z,1.90
2022-10-23T06:00:49.562Z,2.10
2022-10-23T06:01:49.653Z,2.20
2022-10-23T06:02:49.552Z,2.00
2022-10-23T06:03:49.537Z,1.90
2022-10-23T06:04:51.005Z,2.20
2022-10-23T06:05:49.505Z,2.30
2022-10-23T06:06:49.524Z,2.10
2022-10-23T06:07:49.492Z,2.40
2022-10-23T06:08:49.469Z,2.10
2022-10-23T06:09:50.484Z,2.10
2022-10-23T06:10:49.484Z,2.00
2022-10-23T06:11:49.443Z,2.00
2022-10-23T06:12:49.439Z,1.90
2022-10-23T06:13:49.517Z,2.00
2022-10-23T06:14:49.598Z,2.10
2022-10-23T06:15:49.493Z,2.20
2022-10-23T06:16:49.542Z,1.70
2022-10-23T06:17:49.375Z,1.90
2022-10-23T06:18:49.349Z,1.70
2022-10-23T06:19:49.359Z,2.10
2022-10-23T06:20:49.344Z,1.90
2022-10-23T06:21:49.524Z,1.90
2022-10-23T06:22:49.390Z,1.80
2022-10-23T06:23:49.314Z,1.90
2022-10-23T06:24:49.329Z,2.20
2022-10-23T06:25:49.341Z,2.10
2022-10-23T06:26:49.313Z,1.80
2022-10-23T06:27:49.378Z,2.00
2022-10-23T06:28:49.236Z,1.80
2022-10-23T06:29:49.305Z,1.90
2022-10-23T06:30:50.177Z,2.10
2022-10-23T06:31:49.250Z,2.00
2022-10-23T06:32:49.195Z,2.00
2022-10-23T06:33:49.265Z,2.30
2022-10-23T06:34:49.178Z,2.00
2022-10-23T06:35:49.151Z,2.20
2022-10-23T06:36:49.159Z,2.10
2022-10-23T06:37:49.171Z,2.00
2022-10-23T06:38:49.196Z,2.00
2022-10-23T06:39:49.128Z,2.00
2022-10-23T06:40:49.145Z,1.90
2022-10-23T06:41:49.122Z,1.80
2022-10-23T06:42:49.174Z,2.20
2022-10-23T06:43:49.127Z,2.00
2022-10-23T06:44:49.104Z,2.00
2022-10-23T06:45:49.064Z,1.90
2022-10-23T06:46:49.055Z,1.90
2022-10-23T06:47:49.019Z,1.80
2022-10-23T06:48:49.082Z,2.00
2022-10-23T06:49:49.030Z,2.10
2022-10-23T06:50:49.025Z,2.10
2022-10-23T06:51:48.989Z,1.90
2022-10-23T06:52:48.977Z,2.20
2022-10-23T06:53:49.016Z,2.30
2022-10-23T06:54:48.984Z,2.00
2022-10-23T06:55:51.441Z,1.90
2022-10-23T06:56:50.903Z,2.30
2022-10-23T06:57:48.993Z,2.00
2022-10-23T06:58:48.948Z,2.20
2022-10-23T06:59:48.894Z,1.90
2022-10-23T07:00:49.020Z,2.20
2022-10-23T07:01:49.048Z,2.00
2022-10-23T07:02:48.951Z,2.10
2022-10-23T07:03:48.858Z,2.00
2022-10-23T07:04:48.893Z,2.10
2022-10-23T07:05:48.836Z,2.00
2022-10-23T07:06:48.834Z,1.90
2022-10-23T07:07:48.805Z,1.70
2022-10-23T07:08:48.843Z,1.80
2022-10-23T07:09:48.783Z,1.80
2022-10-23T07:10:48.776Z,1.80
2022-10-23T07:11:48.758Z,1.80
2022-10-23T07:12:48.785Z,1.90
2022-10-23T07:13:48.737Z,1.80
2022-10-23T07:14:48.777Z,2.10
2022-10-23T07:15:48.724Z,1.90
2022-10-23T07:16:48.698Z,1.70
2022-10-23T07:17:50.173Z,2.00
2022-10-23T07:18:48.702Z,2.00
2022-10-23T07:19:48.680Z,2.00
2022-10-23T07:20:48.701Z,2.10
2022-10-23T07:21:48.654Z,1.90
2022-10-23T07:22:48.648Z,2.10
2022-10-23T07:23:48.629Z,1.90
2022-10-23T07:24:48.636Z,1.70
2022-10-23T07:25:48.620Z,2.00
2022-10-23T07:26:48.633Z,1.70
2022-10-23T07:27:48.605Z,2.20
2022-10-23T07:28:48.610Z,1.80
2022-10-23T07:29:48.561Z,1.90
2022-10-23T07:30:48.553Z,2.00
2022-10-23T07:31:48.565Z,1.70
2022-10-23T07:32:48.570Z,2.20
2022-10-23T07:33:48.506Z,2.00
2022-10-23T07:34:48.515Z,1.90
2022-10-23T07:35:48.483Z,2.10
2022-10-23T07:36:48.509Z,1.70
2022-10-23T07:37:48.481Z,2.00
2022-10-23T07:38:48.492Z,2.10
2022-10-23T07:39:48.445Z,1.70
2022-10-23T07:40:48.459Z,2.10
2022-10-23T07:41:48.469Z,2.00
2022-10-23T07:42:48.431Z,2.10
2022-10-23T07:43:48.430Z,2.10
2022-10-23T07:44:48.420Z,2.50
2022-10-23T07:45:48.423Z,2.60
2022-10-23T07:46:48.374Z,2.50
2022-10-23T07:47:48.413Z,2.20
2022-10-23T07:48:48.364Z,2.20
2022-10-23T07:49:48.342Z,2.00
2022-10-23T07:50:48.631Z,2.10
2022-10-23T07:51:51.265Z,2.50
2022-10-23T07:52:48.391Z,2.50
2022-10-23T07:53:48.353Z,2.70
2022-10-23T07:54:48.508Z,2.60
2022-10-23T07:55:48.444Z,3.00
2022-10-23T07:56:48.416Z,4.10
2022-10-23T07:57:53.591Z,4.30
2022-10-23T07:58:48.524Z,5.00
2022-10-23T07:59:48.392Z,3.60
2022-10-23T08:00:48.517Z,2.90
2022-10-23T08:01:50.476Z,2.80
2022-10-23T08:02:48.190Z,2.20
2022-10-23T08:03:48.223Z,2.50
2022-10-23T08:04:48.222Z,2.50
2022-10-23T08:05:48.256Z,2.20
2022-10-23T08:06:48.223Z,2.30
2022-10-23T08:07:48.301Z,2.20
2022-10-23T08:08:48.321Z,2.40
2022-10-23T08:09:48.285Z,2.40
2022-10-23T08:10:48.198Z,2.10
2022-10-23T08:11:48.096Z,2.10
2022-10-23T08:12:48.100Z,2.10
2022-10-23T08:13:48.069Z,1.80
2022-10-23T08:14:48.074Z,1.80
2022-10-23T08:15:48.123Z,2.00
2022-10-23T08:16:48.040Z,2.00
2022-10-23T08:17:48.014Z,1.90
2022-10-23T08:18:48.015Z,1.60
2022-10-23T08:19:47.995Z,1.80
2022-10-23T08:20:47.988Z,2.10
2022-10-23T08:21:48.025Z,1.70
2022-10-23T08:22:47.969Z,1.80
2022-10-23T08:23:47.959Z,2.00
2022-10-23T08:24:47.947Z,1.70
2022-10-23T08:25:47.977Z,1.70
2022-10-23T08:26:47.926Z,1.70
2022-10-23T08:27:49.588Z,1.50
2022-10-23T08:28:47.932Z,1.60
2022-10-23T08:29:47.894Z,1.70
2022-10-23T08:30:47.888Z,1.80
2022-10-23T08:31:47.867Z,1.80
2022-10-23T08:32:47.849Z,1.90
2022-10-23T08:34:47.830Z,1.80
2022-10-23T08:35:47.828Z,1.80
2022-10-23T08:36:47.862Z,1.90
2022-10-23T08:37:47.813Z,1.50
2022-10-23T08:38:47.810Z,1.60
2022-10-23T08:39:50.131Z,1.60
2022-10-23T08:40:47.777Z,1.60
2022-10-23T08:41:47.791Z,1.50
2022-10-23T08:42:47.889Z,1.60
2022-10-23T08:43:47.813Z,1.90
2022-10-23T08:44:47.825Z,1.60
2022-10-23T08:45:47.833Z,1.60
2022-10-23T08:46:47.717Z,1.70
2022-10-23T08:47:47.907Z,1.50
2022-10-23T08:48:48.639Z,1.60
2022-10-23T08:49:47.688Z,1.60
2022-10-23T08:50:47.659Z,1.50
2022-10-23T08:51:47.692Z,1.90
2022-10-23T08:52:47.656Z,1.50
2022-10-23T08:53:48.664Z,1.40
2022-10-23T08:54:47.617Z,1.70
2022-10-23T08:55:47.708Z,1.60
2022-10-23T08:56:47.606Z,1.90
2022-10-23T08:57:47.606Z,1.70
2022-10-23T08:58:47.597Z,1.60
2022-10-23T08:59:47.578Z,1.30
2022-10-23T09:00:47.629Z,1.50
2022-10-23T09:01:47.673Z,1.50
2022-10-23T09:02:47.519Z,1.60
2022-10-23T09:03:47.539Z,1.90
2022-10-23T09:04:47.510Z,1.70
2022-10-23T09:05:47.502Z,1.50
2022-10-23T09:06:47.512Z,1.70
2022-10-23T09:07:47.479Z,1.70
2022-10-23T09:08:47.553Z,1.50
2022-10-23T09:09:47.464Z,1.70
2022-10-23T09:10:49.327Z,1.60
2022-10-23T09:11:47.430Z,1.40
2022-10-23T09:12:47.419Z,1.60
2022-10-23T09:13:47.437Z,1.30
2022-10-23T09:14:47.437Z,1.40
2022-10-23T09:15:47.393Z,1.60
2022-10-23T09:16:47.365Z,1.40
2022-10-23T09:17:48.395Z,1.50
2022-10-23T09:18:47.446Z,1.60
2022-10-23T09:19:47.358Z,1.60
2022-10-23T09:20:47.349Z,1.40
2022-10-23T09:21:47.315Z,1.90
2022-10-23T09:22:47.346Z,1.70
2022-10-23T09:23:47.297Z,1.70
2022-10-23T09:24:51.558Z,1.60
2022-10-23T09:25:48.288Z,1.60
2022-10-23T09:26:47.255Z,1.60
2022-10-23T09:27:48.700Z,1.60
2022-10-23T09:28:47.303Z,1.40
2022-10-23T09:29:47.234Z,1.70
2022-10-23T09:30:47.214Z,1.80
2022-10-23T09:31:47.218Z,1.60
2022-10-23T09:32:47.250Z,2.00
2022-10-23T09:33:48.208Z,1.50
2022-10-23T09:34:47.310Z,1.40
2022-10-23T09:35:47.204Z,1.50
2022-10-23T09:36:47.177Z,1.60
2022-10-23T09:37:47.151Z,1.50
2022-10-23T09:38:48.075Z,1.50
2022-10-23T09:39:47.179Z,1.60
2022-10-23T09:40:47.113Z,1.40
2022-10-23T09:41:47.108Z,1.50
2022-10-23T09:42:47.107Z,1.50
2022-10-23T09:43:47.073Z,1.50
2022-10-23T09:44:47.079Z,1.70
2022-10-23T09:45:47.057Z,1.30
2022-10-23T09:46:47.130Z,1.60
2022-10-23T09:47:47.064Z,1.50
2022-10-23T09:48:47.024Z,1.40
2022-10-23T09:49:47.024Z,1.40
2022-10-23T09:50:47.007Z,1.50
2022-10-23T09:51:47.015Z,1.60
2022-10-23T09:52:47.170Z,1.40
2022-10-23T09:53:47.335Z,1.50
2022-10-23T09:54:46.959Z,1.40
2022-10-23T09:55:48.026Z,1.70
2022-10-23T09:57:47.326Z,1.60
2022-10-23T09:58:47.083Z,1.70
2022-10-23T09:59:46.958Z,1.60
2022-10-23T10:00:46.953Z,1.60
2022-10-23T10:01:47.125Z,1.40
2022-10-23T10:02:47.015Z,1.50
2022-10-23T10:03:46.939Z,1.80
2022-10-23T10:04:46.927Z,1.70
2022-10-23T10:05:46.911Z,1.70
2022-10-23T10:06:47.765Z,1.40
2022-10-23T10:07:46.807Z,1.50
2022-10-23T10:08:46.784Z,1.40
2022-10-23T10:09:46.804Z,1.60
2022-10-23T10:10:46.781Z,1.50
2022-10-23T10:11:46.871Z,1.40
2022-10-23T10:12:46.754Z,1.50
2022-10-23T10:13:46.750Z,1.50
2022-10-23T10:14:46.734Z,1.60
2022-10-23T10:15:46.749Z,1.40
2022-10-23T10:16:46.724Z,1.50
2022-10-23T10:17:46.743Z,1.60
2022-10-23T10:18:46.682Z,1.70
2022-10-23T10:19:46.709Z,1.70
2022-10-23T10:20:46.673Z,1.50
2022-10-23T10:21:46.660Z,1.70
2022-10-23T10:22:46.680Z,1.40
2022-10-23T10:23:46.638Z,1.40
2022-10-23T10:24:46.667Z,1.50
2022-10-23T10:25:51.360Z,1.50
2022-10-23T10:26:47.616Z,1.40
2022-10-23T10:27:46.787Z,1.40
2022-10-23T10:28:46.607Z,1.50
2022-10-23T10:29:47.518Z,1.50
2022-10-23T10:30:47.528Z,1.40
2022-10-23T10:31:50.566Z,1.60
2022-10-23T10:32:47.520Z,1.70
2022-10-23T10:33:46.724Z,1.40
2022-10-23T10:34:46.510Z,1.60
2022-10-23T10:35:46.511Z,1.70
2022-10-23T10:36:46.653Z,1.70
2022-10-23T10:37:49.355Z,1.60
2022-10-23T10:38:47.431Z,1.50
2022-10-23T10:39:46.480Z,1.40
2022-10-23T10:40:46.449Z,1.70
2022-10-23T10:41:46.836Z,1.40
2022-10-23T10:42:46.442Z,1.70
2022-10-23T10:43:46.407Z,1.90
2022-10-23T10:44:46.437Z,1.40
2022-10-23T10:45:46.404Z,1.60
2022-10-23T10:46:46.402Z,1.50
2022-10-23T10:47:47.815Z,1.50
2022-10-23T10:48:46.364Z,1.40
2022-10-23T10:49:46.364Z,1.20
2022-10-23T10:50:46.335Z,1.60
2022-10-23T10:51:46.315Z,1.60
2022-10-23T10:52:48.985Z,1.50
2022-10-23T10:53:46.300Z,1.40
2022-10-23T10:54:46.484Z,1.70
2022-10-23T10:55:47.236Z,1.50
2022-10-23T10:56:46.260Z,1.70
2022-10-23T10:57:46.710Z,1.40
2022-10-23T10:58:46.289Z,1.50
2022-10-23T10:59:46.232Z,1.40
2022-10-23T11:00:46.252Z,1.30
2022-10-23T11:01:46.374Z,1.50
2022-10-23T11:02:46.430Z,1.60
2022-10-23T11:03:46.309Z,1.70
2022-10-23T11:04:46.247Z,1.30
2022-10-23T11:05:46.227Z,1.50
2022-10-23T11:06:46.357Z,1.60
2022-10-23T11:07:46.387Z,1.40
2022-10-23T11:08:56.551Z,1.50
2022-10-23T11:09:47.239Z,1.30
2022-10-23T11:10:46.125Z,1.70
2022-10-23T11:11:46.103Z,1.50
2022-10-23T11:12:46.092Z,1.60
2022-10-23T11:13:46.112Z,1.40
2022-10-23T11:14:46.087Z,1.30
2022-10-23T11:15:46.417Z,1.40
2022-10-23T11:16:46.052Z,1.30
2022-10-23T11:17:46.395Z,1.20
2022-10-23T11:18:46.034Z,1.60
2022-10-23T11:19:46.149Z,1.30
2022-10-23T11:20:46.034Z,1.20
2022-10-23T11:21:46.021Z,1.30
2022-10-23T11:22:46.248Z,5.10
2022-10-23T11:23:46.353Z,2.90
2022-10-23T11:24:49.039Z,3.70
2022-10-23T11:25:46.815Z,3.00
2022-10-23T11:26:46.073Z,2.30
2022-10-23T11:27:46.234Z,1.60
2022-10-23T11:28:45.934Z,1.60
2022-10-23T11:29:45.928Z,1.50
2022-10-23T11:30:45.888Z,1.40
2022-10-23T11:31:45.931Z,1.50
2022-10-23T11:32:45.911Z,1.50
2022-10-23T11:33:45.865Z,1.40
2022-10-23T11:34:45.853Z,1.10
2022-10-23T11:35:45.828Z,1.40
2022-10-23T11:36:45.826Z,1.50
2022-10-23T11:37:46.100Z,1.50
2022-10-23T11:38:45.821Z,1.40
2022-10-23T11:39:45.787Z,1.40
2022-10-23T11:40:45.804Z,1.50
2022-10-23T11:41:45.763Z,1.30
2022-10-23T11:42:52.781Z,1.50
2022-10-23T11:43:46.415Z,1.20
2022-10-23T11:44:46.425Z,1.50
2022-10-23T11:45:45.736Z,1.30
2022-10-23T11:46:45.740Z,1.60
2022-10-23T11:47:45.700Z,1.30
2022-10-23T11:48:45.699Z,1.20
2022-10-23T11:49:45.678Z,1.30
2022-10-23T11:50:45.917Z,1.40
2022-10-23T11:51:45.677Z,1.40
2022-10-23T11:52:50.599Z,1.40
2022-10-23T11:53:46.639Z,1.30
2022-10-23T11:54:45.649Z,1.40
2022-10-23T11:55:45.653Z,1.30
2022-10-23T11:56:45.609Z,1.40
2022-10-23T11:57:45.594Z,1.40
2022-10-23T11:58:45.653Z,1.50
2022-10-23T11:59:45.688Z,1.40
2022-10-23T12:00:45.700Z,1.70
2022-10-23T12:01:46.462Z,1.20
2022-10-23T12:02:46.027Z,1.40
2022-10-23T12:03:45.524Z,1.60
2022-10-23T12:04:45.531Z,1.40
2022-10-23T12:05:48.595Z,1.50
2022-10-23T12:07:08.159Z,1.50
2022-10-23T12:07:45.705Z,1.40
2022-10-23T12:08:45.652Z,1.40
2022-10-23T12:09:45.536Z,1.40
2022-10-23T12:10:45.465Z,1.30
2022-10-23T12:11:45.531Z,1.30
2022-10-23T12:12:45.497Z,1.50
2022-10-23T12:13:45.714Z,1.50
2022-10-23T12:14:47.070Z,1.30
2022-10-23T12:15:45.679Z,1.50
2022-10-23T12:16:46.166Z,1.30
2022-10-23T12:17:45.785Z,1.50
2022-10-23T12:18:45.359Z,1.70
2022-10-23T12:19:45.650Z,1.60
2022-10-23T12:20:45.338Z,1.50
2022-10-23T12:21:45.400Z,1.40
2022-10-23T12:22:45.309Z,1.50
2022-10-23T12:23:48.096Z,1.50
2022-10-23T12:24:45.288Z,1.20
2022-10-23T12:25:45.299Z,1.30
2022-10-23T12:26:45.289Z,1.30
2022-10-23T12:27:45.586Z,1.40
2022-10-23T12:28:45.255Z,1.30
2022-10-23T12:29:45.590Z,1.60
2022-10-23T12:30:45.302Z,1.60
2022-10-23T12:31:47.821Z,1.50
2022-10-23T12:32:45.563Z,1.70
2022-10-23T12:33:45.248Z,1.40
2022-10-23T12:34:45.204Z,1.90
2022-10-23T12:35:45.573Z,1.50
2022-10-23T12:36:45.164Z,1.50
2022-10-23T12:37:45.617Z,1.60
2022-10-23T12:38:45.133Z,1.50
2022-10-23T12:39:45.157Z,1.40
2022-10-23T12:40:45.136Z,1.30
2022-10-23T12:41:45.101Z,1.50
2022-10-23T12:42:45.433Z,1.60
2022-10-23T12:43:45.114Z,1.40
2022-10-23T12:44:45.080Z,1.30
2022-10-23T12:45:45.072Z,1.50
2022-10-23T12:46:45.990Z,1.70
2022-10-23T12:47:45.051Z,1.40
2022-10-23T12:48:45.029Z,1.70
2022-10-23T12:49:45.330Z,1.80
2022-10-23T12:50:45.019Z,1.60
2022-10-23T12:51:46.473Z,1.40
2022-10-23T12:52:45.350Z,1.30
2022-10-23T12:53:45.040Z,1.50
2022-10-23T12:54:44.965Z,1.70
2022-10-23T12:55:45.030Z,1.60
2022-10-23T12:56:44.996Z,1.50
2022-10-23T12:57:45.353Z,1.60
2022-10-23T12:58:44.954Z,1.60
2022-10-23T12:59:46.373Z,1.50
2022-10-23T13:00:46.351Z,1.70
2022-10-23T13:01:47.945Z,2.00
2022-10-23T13:02:46.170Z,1.50
2022-10-23T13:03:45.025Z,1.70
2022-10-23T13:04:44.886Z,1.60
2022-10-23T13:05:45.681Z,1.70
2022-10-23T13:07:06.461Z,1.80
2022-10-23T13:07:45.316Z,1.60
2022-10-23T13:08:45.285Z,1.70
2022-10-23T13:09:44.879Z,1.60
2022-10-23T13:10:47.607Z,1.50
2022-10-23T13:11:44.888Z,1.50
2022-10-23T13:12:44.871Z,1.60
2022-10-23T13:13:44.972Z,1.60
2022-10-23T13:14:44.935Z,1.70
2022-10-23T13:15:44.932Z,1.70
2022-10-23T13:16:44.998Z,1.70
2022-10-23T13:17:46.136Z,1.60
2022-10-23T13:18:44.940Z,1.80
2022-10-23T13:19:44.908Z,1.90
2022-10-23T13:20:44.668Z,1.70